createdAt,value
2023-03-13T06:49:33.652Z,12.40
2023-03-13T06:52:43.361Z,12.50
2023-03-13T06:55:45.973Z,12.70
2023-03-13T06:58:48.793Z,12.80
2023-03-13T07:01:50.729Z,12.90
2023-03-13T07:04:53.119Z,12.90
2023-03-13T07:07:57.180Z,13.00
2023-03-13T07:11:05.847Z,13.00
2023-03-13T07:14:16.854Z,13.10
2023-03-13T07:17:20.876Z,13.10
2023-03-13T07:20:28.011Z,13.10
2023-03-13T07:23:35.118Z,13.10
2023-03-13T07:26:39.718Z,13.10
2023-03-13T07:29:44.060Z,13.20
2023-03-13T07:32:49.287Z,13.20
2023-03-13T07:35:54.259Z,13.20
2023-03-13T07:38:57.722Z,13.30
2023-03-13T07:42:00.965Z,13.40
2023-03-13T07:45:05.036Z,13.60
2023-03-13T07:48:08.072Z,13.70
2023-03-13T07:51:33.486Z,13.70
2023-03-13T07:54:40.995Z,13.80
2023-03-13T07:57:44.086Z,13.80
2023-03-13T08:00:46.495Z,13.80
2023-03-13T08:03:50.768Z,13.90
2023-03-13T08:06:55.637Z,14.10
2023-03-13T08:09:57.773Z,14.40
2023-03-13T08:12:59.595Z,14.50
2023-03-13T08:16:12.363Z,14.50
2023-03-13T08:19:14.841Z,14.40
2023-03-13T08:22:16.748Z,14.50
2023-03-13T08:25:19.232Z,14.60
2023-03-13T08:28:21.696Z,14.60
2023-03-13T08:31:26.566Z,14.50
2023-03-13T08:34:28.678Z,14.80
2023-03-13T08:37:31.200Z,14.90
2023-03-13T08:40:33.288Z,14.80
2023-03-13T08:43:35.138Z,14.80
2023-03-13T08:46:38.096Z,14.80
2023-03-13T08:49:40.060Z,14.70
2023-03-13T08:52:45.764Z,14.60
2023-03-13T08:55:54.299Z,14.50
2023-03-13T08:59:04.437Z,14.40
2023-03-13T09:02:22.291Z,14.50
2023-03-13T09:05:29.542Z,14.60
2023-03-13T09:08:38.631Z,14.80
2023-03-13T09:11:53.202Z,15.00
2023-03-13T09:15:04.875Z,15.00
2023-03-13T09:18:12.805Z,14.90
2023-03-13T09:21:25.285Z,14.80
2023-03-13T09:24:31.088Z,15.00
2023-03-13T09:27:34.254Z,14.80
2023-03-13T09:30:40.341Z,14.90
2023-03-13T09:33:45.887Z,15.20
2023-03-13T09:36:49.000Z,15.40
2023-03-13T09:39:52.288Z,16.20
2023-03-13T09:42:59.587Z,16.70
2023-03-13T09:46:06.836Z,16.90
2023-03-13T09:49:42.954Z,17.80
2023-03-13T09:52:51.539Z,19.20
2023-03-13T09:55:53.706Z,19.40
2023-03-13T09:59:10.737Z,18.70
2023-03-13T10:02:38.014Z,19.00
2023-03-13T10:05:52.363Z,20.40
2023-03-13T10:08:54.366Z,20.80
2023-03-13T10:12:21.800Z,20.10
2023-03-13T10:15:42.982Z,19.80
2023-03-13T10:18:48.727Z,20.40
2023-03-13T10:21:54.087Z,20.00
2023-03-13T10:25:06.739Z,19.70
2023-03-13T10:28:17.240Z,19.40
2023-03-13T10:31:37.942Z,20.20
2023-03-13T10:34:50.185Z,20.50
2023-03-13T10:38:03.965Z,20.60
2023-03-13T10:41:29.116Z,19.80
2023-03-13T10:44:33.455Z,19.60
2023-03-13T10:47:36.674Z,19.40
2023-03-13T10:50:43.732Z,19.20
2023-03-13T10:53:53.439Z,18.20
2023-03-13T10:57:33.125Z,17.60
2023-03-13T11:00:39.639Z,17.30
2023-03-13T11:03:42.508Z,17.00
2023-03-13T11:06:53.498Z,16.70
2023-03-13T11:10:00.351Z,16.90
2023-03-13T11:13:10.771Z,16.80
2023-03-13T11:16:23.757Z,16.80
2023-03-13T11:19:30.794Z,16.80
2023-03-13T11:23:05.881Z,17.30
2023-03-13T11:26:20.528Z,18.50
2023-03-13T11:29:54.095Z,19.40
2023-03-13T11:33:23.554Z,20.40
2023-03-13T11:37:02.637Z,18.90
2023-03-13T11:40:17.258Z,18.40
2023-03-13T11:43:55.120Z,18.40
2023-03-13T11:47:14.227Z,18.90
2023-03-13T11:50:30.954Z,19.00
2023-03-13T11:53:45.790Z,18.60
2023-03-13T11:56:58.062Z,18.40
2023-03-13T12:00:06.574Z,18.50
2023-03-13T12:03:32.845Z,18.40
2023-03-13T12:06:56.956Z,18.40
2023-03-13T12:10:09.732Z,18.90
2023-03-13T12:13:23.851Z,18.60
2023-03-13T12:16:37.470Z,18.80
2023-03-13T12:19:50.922Z,18.60
2023-03-13T12:23:07.178Z,18.80
2023-03-13T12:26:22.254Z,19.20
2023-03-13T12:29:42.126Z,19.00
2023-03-13T12:32:58.907Z,18.80
2023-03-13T12:36:10.829Z,19.10
2023-03-13T12:39:22.040Z,18.70
2023-03-13T12:42:47.310Z,18.80
2023-03-13T12:46:15.607Z,18.60
2023-03-13T12:49:51.398Z,18.70
2023-03-13T12:53:38.491Z,18.70
2023-03-13T12:56:50.751Z,18.80
2023-03-13T13:00:06.885Z,19.20
2023-03-13T13:03:12.566Z,19.60
2023-03-13T13:06:18.024Z,19.70
2023-03-13T13:09:30.291Z,19.80
2023-03-13T13:12:32.737Z,19.80
2023-03-13T13:15:35.082Z,20.00
2023-03-13T13:18:37.772Z,20.00
2023-03-13T13:21:39.655Z,20.10
2023-03-13T13:24:50.077Z,20.20
2023-03-13T13:27:55.280Z,20.90
2023-03-13T13:30:58.169Z,21.30
2023-03-13T13:34:00.654Z,21.60
2023-03-13T13:37:12.285Z,21.50
2023-03-13T13:40:26.096Z,21.30
2023-03-13T13:43:34.994Z,21.50
2023-03-13T13:46:36.887Z,21.10
2023-03-13T13:49:53.101Z,20.70
2023-03-13T13:53:28.918Z,20.90
2023-03-13T13:56:51.610Z,20.80
2023-03-13T14:00:16.318Z,20.80
2023-03-13T14:03:24.694Z,20.80
2023-03-13T14:06:35.172Z,21.00
2023-03-13T14:09:57.160Z,21.00
2023-03-13T14:13:00.568Z,20.30
2023-03-13T14:16:25.189Z,20.30
2023-03-13T14:19:35.217Z,20.30
2023-03-13T14:22:48.053Z,20.50
2023-03-13T14:25:51.045Z,20.50
2023-03-13T14:28:58.129Z,20.50
2023-03-13T14:32:00.009Z,20.30
2023-03-13T14:35:02.337Z,20.20
2023-03-13T14:38:04.288Z,20.30
2023-03-13T14:41:06.219Z,20.30
2023-03-13T14:44:19.220Z,20.00
2023-03-13T14:47:26.973Z,20.10
2023-03-13T14:50:28.851Z,20.10
2023-03-13T14:53:30.503Z,20.30
2023-03-13T14:56:34.800Z,20.30
2023-03-13T14:59:36.811Z,20.20
2023-03-13T15:02:38.822Z,20.20
2023-03-13T15:05:40.481Z,20.10
2023-03-13T15:08:45.316Z,20.00
2023-03-13T15:12:00.719Z,20.00
2023-03-13T15:15:02.352Z,20.10
2023-03-13T15:18:22.621Z,20.10
2023-03-13T15:21:30.989Z,20.00
2023-03-13T15:24:32.662Z,20.10
2023-03-13T15:27:35.206Z,20.00
2023-03-13T15:30:36.865Z,20.00
2023-03-13T15:33:39.611Z,20.00
2023-03-13T15:36:42.477Z,20.00
2023-03-13T15:39:44.496Z,20.00
2023-03-13T15:42:46.233Z,20.00
2023-03-13T15:45:51.800Z,20.00
2023-03-13T15:48:53.998Z,20.00
2023-03-13T15:51:57.765Z,20.00
2023-03-13T15:54:59.535Z,19.90
2023-03-13T15:58:01.450Z,19.90
2023-03-13T16:01:03.383Z,20.10
2023-03-13T16:04:05.787Z,20.10
2023-03-13T16:07:12.225Z,20.10
2023-03-13T16:10:25.548Z,20.10
2023-03-13T16:13:27.502Z,20.00
2023-03-13T16:16:31.647Z,19.90
2023-03-13T16:19:33.349Z,19.70
2023-03-13T16:22:35.013Z,19.70
2023-03-13T16:25:37.647Z,19.60
2023-03-13T16:28:39.500Z,19.60
2023-03-13T16:31:41.784Z,19.60
2023-03-13T16:34:43.477Z,19.50
2023-03-13T16:37:45.273Z,19.40
2023-03-13T16:40:46.942Z,19.30
2023-03-13T16:43:48.944Z,19.20
2023-03-13T16:47:04.683Z,19.20
2023-03-13T16:50:34.777Z,19.20
2023-03-13T16:53:36.573Z,19.10
2023-03-13T16:56:42.710Z,19.10
2023-03-13T16:59:44.480Z,19.10
